Time;durP1;ratioP1;P1;durP2;ratioP2;P2;SDS_P1;SDS_P2;PMS_P1;PMS_P2;Temp;Humidity;BMP_temperature;BMP_pressure;BME280_temperature;BME280_humidity;BME280_pressure;Samples;Min_cycle;Max_cycle;Signal;HPM_P1;HPM_P2
2022/09/10 00:00:42;;;;;;;4.20;1.42;;;16.20;99.90;;;;;;5054139;28;20167;-52
2022/09/10 00:03:08;;;;;;;2.30;1.20;;;16.20;99.90;;;;;;5053669;28;20163;-52
2022/09/10 00:05:46;;;;;;;2.28;1.27;;;16.20;99.90;;;;;;5053783;28;20171;-52
2022/09/10 00:08:12;;;;;;;2.22;1.40;;;16.20;99.90;;;;;;5054015;28;20253;-52
2022/09/10 00:10:39;;;;;;;4.13;1.40;;;16.20;99.90;;;;;;5054008;28;20198;-52
2022/09/10 00:13:06;;;;;;;4.90;1.30;;;16.20;99.90;;;;;;5053565;28;20210;-52
2022/09/10 00:15:31;;;;;;;2.83;0.95;;;16.10;99.90;;;;;;5053508;28;20202;-52
2022/09/10 00:17:57;;;;;;;5.75;1.40;;;16.20;99.90;;;;;;5053498;28;20197;-53
2022/09/10 00:20:23;;;;;;;6.47;1.50;;;16.10;99.90;;;;;;5053498;28;20253;-52
2022/09/10 00:22:49;;;;;;;4.90;1.30;;;16.10;99.90;;;;;;5053411;28;20653;-52
2022/09/10 00:25:15;;;;;;;4.07;1.15;;;16.10;99.90;;;;;;5052385;28;20170;-52
2022/09/10 00:27:40;;;;;;;2.40;0.90;;;16.20;99.90;;;;;;5053932;28;20170;-52
2022/09/10 00:30:06;;;;;;;4.53;1.13;;;16.20;99.90;;;;;;5053558;28;20505;-52
2022/09/10 00:32:33;;;;;;;2.90;0.93;;;16.20;99.90;;;;;;5053183;28;20282;-52
2022/09/10 00:35:00;;;;;;;3.00;1.50;;;16.20;99.90;;;;;;5053420;28;20189;-52
2022/09/10 00:37:26;;;;;;;5.90;1.20;;;16.20;99.90;;;;;;5053407;28;20500;-52
2022/09/10 00:39:51;;;;;;;7.53;1.60;;;16.30;99.90;;;;;;5053142;28;20535;-52
2022/09/10 00:42:17;;;;;;;1.80;1.27;;;16.30;99.90;;;;;;5052595;28;20212;-52
2022/09/10 00:44:43;;;;;;;4.88;1.27;;;16.30;99.90;;;;;;5053283;28;20575;-52
2022/09/10 00:47:13;;;;;;;4.43;1.05;;;16.30;99.90;;;;;;5053516;28;20241;-51
2022/09/10 00:49:48;;;;;;;2.80;0.90;;;16.30;99.90;;;;;;5053200;28;20171;-53
2022/09/10 00:52:15;;;;;;;3.40;1.48;;;16.40;99.90;;;;;;5051716;28;20573;-52
2022/09/10 00:54:42;;;;;;;3.50;1.20;;;16.30;99.90;;;;;;5052842;28;20177;-53
2022/09/10 00:57:16;;;;;;;3.55;1.48;;;16.40;99.90;;;;;;5051805;28;20170;-52
2022/09/10 00:59:47;;;;;;;5.03;1.20;;;16.40;99.90;;;;;;5052606;28;20174;-52
2022/09/10 01:02:13;;;;;;;5.93;1.75;;;16.40;99.90;;;;;;5052731;28;20173;-52
2022/09/10 01:04:39;;;;;;;3.17;1.52;;;16.30;99.90;;;;;;5052986;28;20174;-52
2022/09/10 01:07:08;;;;;;;3.60;1.20;;;16.30;99.90;;;;;;5053034;28;20199;-52
2022/09/10 01:09:36;;;;;;;2.90;1.00;;;16.30;99.90;;;;;;5052756;28;20171;-51
2022/09/10 01:12:12;;;;;;;3.83;1.50;;;16.30;99.90;;;;;;5051225;28;20193;-51
2022/09/10 01:14:54;;;;;;;4.20;1.45;;;16.30;99.90;;;;;;5052799;28;20170;-51
2022/09/10 01:17:51;;;;;;;8.18;1.60;;;16.30;99.90;;;;;;5052705;28;20190;-52
2022/09/10 01:20:47;;;;;;;4.57;1.63;;;16.40;99.90;;;;;;5052353;28;20167;-51
2022/09/10 01:23:16;;;;;;;8.55;1.52;;;16.30;99.90;;;;;;5052571;28;20198;-52
2022/09/10 01:26:20;;;;;;;4.72;1.20;;;16.40;99.90;;;;;;5052541;28;20177;-51
2022/09/10 01:29:08;;;;;;;5.63;1.85;;;16.30;99.90;;;;;;5050998;28;20185;-52
2022/09/10 01:31:40;;;;;;;3.13;1.35;;;16.30;99.90;;;;;;5052144;28;20570;-52
2022/09/10 01:34:17;;;;;;;7.22;1.50;;;16.30;99.90;;;;;;5052350;28;20252;-52
2022/09/10 01:36:47;;;;;;;3.88;1.40;;;16.30;99.90;;;;;;5051908;28;20170;-51
2022/09/10 01:39:18;;;;;;;3.45;1.23;;;16.30;99.90;;;;;;5052033;28;20170;-52
2022/09/10 01:41:44;;;;;;;3.42;1.60;;;16.40;99.90;;;;;;5052011;28;20622;-52
2022/09/10 01:44:30;;;;;;;5.13;1.35;;;16.30;99.90;;;;;;5052411;28;20250;-52
2022/09/10 01:47:05;;;;;;;5.30;1.45;;;16.30;99.90;;;;;;5050618;28;20634;-52
2022/09/10 01:49:57;;;;;;;3.90;1.90;;;16.40;99.90;;;;;;5052296;28;20162;-51
2022/09/10 01:52:37;;;;;;;6.55;1.70;;;16.30;99.90;;;;;;5052073;28;20254;-52
2022/09/10 01:55:33;;;;;;;3.38;1.30;;;16.30;99.90;;;;;;5051822;28;20179;-52
2022/09/10 01:58:15;;;;;;;4.20;1.88;;;16.40;99.90;;;;;;5051774;28;20167;-52
2022/09/10 02:00:49;;;;;;;3.83;1.55;;;16.30;99.90;;;;;;5052028;28;20530;-51
2022/09/10 02:03:19;;;;;;;4.47;1.48;;;16.40;99.90;;;;;;5051781;28;20190;-52
2022/09/10 02:05:48;;;;;;;3.85;1.35;;;16.30;99.90;;;;;;5052034;28;20257;-51
2022/09/10 02:08:29;;;;;;;6.45;1.85;;;16.40;99.90;;;;;;5051698;28;20166;-52
2022/09/10 02:10:58;;;;;;;4.65;1.85;;;16.40;99.90;;;;;;5051907;28;20257;-51
2022/09/10 02:13:24;;;;;;;5.35;1.98;;;16.30;99.90;;;;;;5051890;28;20323;-51
2022/09/10 02:15:51;;;;;;;3.58;1.35;;;16.30;99.90;;;;;;5051587;28;20237;-52
2022/09/10 02:18:19;;;;;;;3.92;1.20;;;16.30;99.90;;;;;;5051584;28;20262;-51
2022/09/10 02:20:45;;;;;;;6.35;1.85;;;16.30;99.90;;;;;;5051619;28;20198;-52
2022/09/10 02:23:13;;;;;;;4.65;2.00;;;16.30;99.90;;;;;;5051795;28;20188;-51
2022/09/10 02:25:39;;;;;;;2.88;1.70;;;16.30;99.90;;;;;;5051917;28;20177;-51
2022/09/10 02:28:05;;;;;;;4.22;1.45;;;16.30;99.90;;;;;;5051483;28;20158;-52
2022/09/10 02:30:31;;;;;;;5.25;1.90;;;16.30;99.90;;;;;;5051488;28;20171;-52
2022/09/10 02:32:56;;;;;;;3.15;1.48;;;16.30;99.90;;;;;;5051667;28;20297;-51
2022/09/10 02:35:22;;;;;;;6.55;1.77;;;16.30;99.90;;;;;;5050193;28;20649;-51
2022/09/10 02:37:49;;;;;;;6.22;1.80;;;16.30;99.90;;;;;;5051465;28;20170;-51
2022/09/10 02:40:18;;;;;;;3.15;1.80;;;16.30;99.90;;;;;;5051444;28;20159;-51
2022/09/10 02:42:45;;;;;;;11.02;2.20;;;16.30;99.90;;;;;;5051308;28;20215;-52
2022/09/10 02:45:13;;;;;;;3.03;1.60;;;16.30;99.90;;;;;;5051633;28;20186;-51
2022/09/10 02:47:39;;;;;;;5.32;1.70;;;16.30;99.90;;;;;;5051669;28;20166;-51
2022/09/10 02:50:06;;;;;;;5.95;1.70;;;16.30;99.90;;;;;;5055114;28;20638;-51
2022/09/10 02:52:32;;;;;;;3.65;1.67;;;16.30;99.90;;;;;;5055011;28;20166;-52
2022/09/10 02:54:58;;;;;;;4.65;1.67;;;16.30;99.90;;;;;;5055112;28;20173;-51
2022/09/10 02:57:25;;;;;;;3.65;1.42;;;16.40;99.90;;;;;;5055007;28;20246;-51
2022/09/10 02:59:51;;;;;;;8.27;1.67;;;16.30;99.90;;;;;;5055037;28;20182;-52
2022/09/10 03:02:17;;;;;;;6.50;1.70;;;16.30;99.90;;;;;;5054999;28;20521;-51
2022/09/10 03:04:43;;;;;;;2.85;1.85;;;16.30;99.90;;;;;;5055220;28;20171;-52
2022/09/10 03:07:08;;;;;;;3.85;1.92;;;16.30;99.90;;;;;;5055220;28;20246;-52
2022/09/10 03:09:34;;;;;;;3.63;1.60;;;16.20;99.90;;;;;;5055102;28;20645;-51
2022/09/10 03:12:00;;;;;;;7.50;2.10;;;16.20;99.90;;;;;;5054764;28;20170;-52
2022/09/10 03:14:27;;;;;;;5.30;2.00;;;16.10;99.90;;;;;;5054850;28;20615;-52
2022/09/10 03:16:52;;;;;;;6.15;1.85;;;16.10;99.90;;;;;;5054618;28;20223;-52
2022/09/10 03:19:19;;;;;;;6.45;2.08;;;16.20;99.90;;;;;;5053412;28;20312;-52
2022/09/10 03:21:46;;;;;;;3.65;1.75;;;16.10;99.90;;;;;;5054526;28;20640;-52
2022/09/10 03:24:12;;;;;;;5.78;1.73;;;16.10;99.90;;;;;;5054650;28;20166;-52
2022/09/10 03:26:37;;;;;;;4.55;2.00;;;16.10;99.90;;;;;;5054812;28;20540;-52
2022/09/10 03:29:03;;;;;;;3.60;2.03;;;16.10;99.90;;;;;;5054439;28;20159;-51
2022/09/10 03:31:29;;;;;;;4.28;1.73;;;16.10;99.90;;;;;;5054409;28;20170;-51
2022/09/10 03:33:56;;;;;;;4.03;2.25;;;16.10;99.90;;;;;;5054550;28;20603;-52
2022/09/10 03:36:22;;;;;;;2.83;1.80;;;16.10;99.90;;;;;;5054413;28;20227;-51
2022/09/10 03:38:48;;;;;;;5.53;2.10;;;16.10;99.90;;;;;;5054264;28;20175;-52
2022/09/10 03:41:14;;;;;;;6.03;2.35;;;16.10;99.90;;;;;;5054323;28;20539;-52
2022/09/10 03:43:39;;;;;;;3.40;1.65;;;16.10;99.90;;;;;;5054266;28;20249;-52
2022/09/10 03:46:05;;;;;;;4.53;2.47;;;16.20;99.90;;;;;;5054778;28;20166;-52
2022/09/10 03:48:31;;;;;;;5.88;2.03;;;16.10;99.90;;;;;;5054109;28;20163;-52
2022/09/10 03:50:56;;;;;;;7.60;1.88;;;16.20;99.90;;;;;;5054293;28;20174;-52
2022/09/10 03:53:23;;;;;;;2.92;1.92;;;16.10;99.90;;;;;;5053907;28;20674;-52
2022/09/10 03:55:49;;;;;;;4.55;2.30;;;16.10;99.90;;;;;;5054026;28;20167;-52
2022/09/10 03:58:16;;;;;;;8.25;1.90;;;16.10;99.90;;;;;;5054179;28;20175;-52
2022/09/10 04:00:42;;;;;;;4.22;1.70;;;16.10;99.90;;;;;;5054040;28;20533;-52
2022/09/10 04:03:09;;;;;;;4.95;2.17;;;15.90;99.90;;;;;;5054257;28;20174;-51
2022/09/10 04:05:39;;;;;;;4.10;2.20;;;16.00;99.90;;;;;;5054125;28;20158;-51
2022/09/10 04:08:06;;;;;;;8.20;2.28;;;15.90;99.90;;;;;;5054365;28;20193;-51
2022/09/10 04:10:32;;;;;;;6.53;2.53;;;16.00;99.90;;;;;;5053940;28;20170;-51
2022/09/10 04:12:58;;;;;;;7.25;1.98;;;15.90;99.90;;;;;;5053833;28;20202;-50
2022/09/10 04:15:24;;;;;;;7.38;2.13;;;16.00;99.90;;;;;;5053612;28;20218;-51
2022/09/10 04:17:51;;;;;;;4.53;2.63;;;16.00;99.90;;;;;;5052288;28;20266;-51
2022/09/10 04:20:24;;;;;;;5.75;2.38;;;16.00;99.90;;;;;;5053472;28;20175;-51
2022/09/10 04:22:52;;;;;;;4.97;2.20;;;15.90;99.90;;;;;;5052182;28;20163;-51
2022/09/10 04:25:18;;;;;;;6.93;2.72;;;16.00;99.90;;;;;;5053430;28;20173;-51
2022/09/10 04:27:45;;;;;;;7.20;2.20;;;16.00;99.90;;;;;;5053258;28;20252;-51
2022/09/10 04:30:11;;;;;;;5.80;2.17;;;16.00;99.90;;;;;;5053295;28;20171;-51
2022/09/10 04:32:38;;;;;;;5.18;2.15;;;16.00;99.90;;;;;;5053839;28;20177;-52
2022/09/10 04:35:05;;;;;;;7.60;2.22;;;16.00;99.90;;;;;;5053194;28;20229;-51
2022/09/10 04:37:31;;;;;;;6.05;2.13;;;16.00;99.90;;;;;;5053123;28;20167;-51
2022/09/10 04:39:57;;;;;;;6.18;2.35;;;16.00;99.90;;;;;;5053133;28;20224;-52
2022/09/10 04:42:23;;;;;;;6.47;1.83;;;16.00;99.90;;;;;;5052750;28;20170;-51
2022/09/10 04:44:49;;;;;;;6.25;2.13;;;16.00;99.90;;;;;;5052904;28;20208;-52
2022/09/10 04:47:16;;;;;;;6.43;2.35;;;16.10;99.90;;;;;;5052956;28;20251;-51
2022/09/10 04:49:42;;;;;;;6.78;2.00;;;16.10;99.90;;;;;;5052929;28;20167;-51
2022/09/10 04:52:12;;;;;;;2.47;1.90;;;16.10;99.90;;;;;;5053262;28;20246;-52
2022/09/10 04:54:38;;;;;;;4.13;1.80;;;17.20;99.90;;;;;;5053305;28;20283;-51
2022/09/10 04:57:05;;;;;;;3.90;2.00;;;16.10;99.90;;;;;;5053125;28;20170;-52
2022/09/10 04:59:31;;;;;;;6.53;2.00;;;16.10;99.90;;;;;;5052820;28;20185;-52
2022/09/10 05:01:56;;;;;;;8.60;2.25;;;16.10;99.90;;;;;;5052752;28;20245;-52
2022/09/10 05:04:23;;;;;;;3.92;1.88;;;16.10;99.90;;;;;;5052677;28;20525;-51
2022/09/10 05:06:49;;;;;;;4.80;2.28;;;16.10;99.90;;;;;;5052617;28;20159;-51
2022/09/10 05:09:18;;;;;;;3.45;1.60;;;16.00;99.90;;;;;;5052473;28;20257;-51
2022/09/10 05:11:45;;;;;;;6.78;2.13;;;16.10;99.90;;;;;;5050612;28;20174;-52
2022/09/10 05:14:11;;;;;;;6.65;1.70;;;16.10;99.90;;;;;;5052550;28;20218;-52
2022/09/10 05:16:37;;;;;;;2.80;1.90;;;16.10;99.90;;;;;;5052365;28;20222;-51
2022/09/10 05:19:03;;;;;;;7.75;2.20;;;16.10;99.90;;;;;;5052605;28;20177;-51
2022/09/10 05:21:30;;;;;;;8.20;2.00;;;16.10;99.90;;;;;;5052380;28;20241;-50
2022/09/10 05:23:56;;;;;;;11.18;2.10;;;16.10;99.90;;;;;;5052249;28;20181;-51
2022/09/10 05:26:22;;;;;;;4.32;2.08;;;16.20;99.90;;;;;;5052312;28;20693;-51
2022/09/10 05:28:48;;;;;;;4.93;2.00;;;16.10;99.90;;;;;;5051989;28;20626;-50
2022/09/10 05:31:15;;;;;;;5.90;2.00;;;16.10;99.90;;;;;;5052093;28;20167;-51
2022/09/10 05:33:40;;;;;;;3.30;1.70;;;16.10;99.90;;;;;;5051861;28;20208;-51
2022/09/10 05:36:08;;;;;;;5.30;2.03;;;16.10;99.90;;;;;;5052365;28;20245;-51
2022/09/10 05:38:34;;;;;;;6.47;1.90;;;16.20;99.90;;;;;;5052461;28;20174;-51
2022/09/10 05:41:00;;;;;;;6.05;2.00;;;16.20;99.90;;;;;;5052087;28;20171;-55
2022/09/10 05:43:26;;;;;;;3.38;1.58;;;16.20;99.90;;;;;;5052094;28;20169;-52
2022/09/10 05:45:52;;;;;;;5.93;2.30;;;16.20;99.90;;;;;;5052194;28;20531;-52
2022/09/10 05:48:18;;;;;;;7.88;2.50;;;16.20;99.90;;;;;;5051905;28;20250;-52
2022/09/10 05:50:46;;;;;;;5.13;1.95;;;16.20;99.90;;;;;;5051825;28;20221;-52
2022/09/10 05:53:12;;;;;;;4.95;2.47;;;16.20;99.90;;;;;;5051267;28;20259;-52
2022/09/10 05:55:37;;;;;;;2.78;1.70;;;16.30;99.90;;;;;;5052333;28;20261;-51
2022/09/10 05:58:03;;;;;;;6.90;2.17;;;16.30;99.90;;;;;;5051864;28;20173;-49
2022/09/10 06:00:29;;;;;;;7.47;1.80;;;16.30;99.90;;;;;;5051777;28;20162;-49
2022/09/10 06:02:58;;;;;;;9.82;2.15;;;16.40;99.90;;;;;;5052007;28;20166;-49
2022/09/10 06:05:23;;;;;;;4.15;2.10;;;16.40;99.90;;;;;;5051990;28;20167;-50
2022/09/10 06:07:49;;;;;;;3.53;2.08;;;16.40;99.90;;;;;;5051739;28;20173;-50
2022/09/10 06:10:15;;;;;;;6.80;1.98;;;16.40;99.90;;;;;;5051756;28;20166;-51
2022/09/10 06:12:50;;;;;;;4.18;2.38;;;16.40;99.90;;;;;;5051541;28;20170;-51
2022/09/10 06:15:17;;;;;;;7.15;2.40;;;16.30;99.90;;;;;;5051674;28;20222;-50
2022/09/10 06:17:43;;;;;;;6.32;2.33;;;16.40;99.90;;;;;;5051348;28;20194;-50
2022/09/10 06:20:09;;;;;;;4.78;1.77;;;16.40;99.90;;;;;;5051392;28;20255;-50
2022/09/10 06:22:35;;;;;;;7.93;3.05;;;16.40;99.90;;;;;;5051878;28;20175;-49
2022/09/10 06:25:01;;;;;;;7.18;2.28;;;16.40;99.90;;;;;;5055191;28;20185;-51
2022/09/10 06:27:26;;;;;;;5.72;1.92;;;16.50;99.90;;;;;;5055668;28;20167;-50
2022/09/10 06:29:52;;;;;;;3.83;2.00;;;16.40;99.90;;;;;;5055611;28;20167;-50
2022/09/10 06:32:17;;;;;;;7.18;2.83;;;16.50;99.90;;;;;;5055497;28;20167;-50
2022/09/10 06:34:43;;;;;;;5.25;2.22;;;16.50;99.90;;;;;;5055458;28;20202;-50
2022/09/10 06:37:08;;;;;;;5.70;2.63;;;16.50;99.90;;;;;;5055207;28;20220;-50
2022/09/10 06:39:34;;;;;;;3.55;1.90;;;16.50;99.90;;;;;;5055063;28;20163;-50
2022/09/10 06:42:00;;;;;;;5.18;1.92;;;16.60;99.90;;;;;;5054568;28;20249;-51
2022/09/10 06:44:28;;;;;;;4.72;2.00;;;16.50;99.90;;;;;;5054445;28;20257;-52
2022/09/10 06:46:54;;;;;;;3.38;2.22;;;16.50;99.90;;;;;;5054738;28;20253;-50
2022/09/10 06:49:20;;;;;;;7.15;2.03;;;16.60;99.90;;;;;;5054448;28;20170;-50
2022/09/10 06:51:48;;;;;;;5.97;2.15;;;16.60;99.90;;;;;;5054586;28;20175;-50
2022/09/10 06:54:14;;;;;;;6.53;2.17;;;16.60;99.90;;;;;;5054656;28;20279;-50
2022/09/10 06:56:41;;;;;;;2.95;1.92;;;16.60;99.90;;;;;;5054884;28;20166;-51
2022/09/10 06:59:07;;;;;;;6.47;2.22;;;16.70;99.90;;;;;;5055578;28;20175;-51
2022/09/10 07:01:34;;;;;;;6.97;2.88;;;16.60;99.90;;;;;;5055241;28;20167;-51
2022/09/10 07:04:00;;;;;;;5.18;2.08;;;16.60;99.90;;;;;;5054884;28;20634;-51
2022/09/10 07:06:27;;;;;;;7.45;2.33;;;16.50;99.90;;;;;;5054773;28;20159;-51
2022/09/10 07:08:56;;;;;;;6.97;2.80;;;16.50;99.90;;;;;;5054870;28;20255;-50
2022/09/10 07:11:24;;;;;;;7.82;2.53;;;16.50;99.90;;;;;;5054843;28;20171;-50
2022/09/10 07:13:51;;;;;;;6.25;2.35;;;16.60;99.90;;;;;;5054964;28;20284;-51
2022/09/10 07:16:25;;;;;;;5.95;2.33;;;16.50;99.90;;;;;;5054551;28;20229;-50
2022/09/10 07:18:55;;;;;;;5.80;2.30;;;16.50;99.90;;;;;;5054698;28;20169;-50
2022/09/10 07:21:23;;;;;;;4.22;2.00;;;16.50;99.90;;;;;;5054591;28;20169;-50
2022/09/10 07:23:50;;;;;;;4.57;2.28;;;16.50;99.90;;;;;;5054597;28;20260;-50
2022/09/10 07:26:18;;;;;;;5.30;2.53;;;16.60;99.90;;;;;;5054585;28;20229;-51
2022/09/10 07:28:45;;;;;;;5.55;2.50;;;16.60;99.90;;;;;;5054785;28;20175;-50
2022/09/10 07:31:20;;;;;;;6.97;3.00;;;16.60;99.90;;;;;;5054457;28;20167;-50
2022/09/10 07:33:46;;;;;;;4.85;2.75;;;16.60;99.90;;;;;;5054077;28;20206;-50
2022/09/10 07:36:12;;;;;;;7.93;2.58;;;16.70;99.90;;;;;;5054120;28;20253;-50
2022/09/10 07:38:39;;;;;;;5.65;2.50;;;16.70;99.90;;;;;;5054442;28;20249;-50
2022/09/10 07:41:06;;;;;;;7.10;2.50;;;16.70;99.90;;;;;;5054545;28;20174;-50
2022/09/10 07:43:32;;;;;;;6.90;2.75;;;16.70;99.90;;;;;;5054249;28;20175;-50
2022/09/10 07:45:57;;;;;;;9.07;2.53;;;16.90;99.90;;;;;;5054129;28;20166;-50
2022/09/10 07:48:26;;;;;;;7.10;2.58;;;16.90;99.90;;;;;;5054179;28;20609;-51
2022/09/10 07:50:52;;;;;;;8.00;2.47;;;17.00;99.90;;;;;;5053103;28;20171;-50
2022/09/10 07:53:18;;;;;;;4.15;2.22;;;17.10;99.90;;;;;;5053967;28;20557;-50
2022/09/10 07:55:44;;;;;;;7.70;2.55;;;17.20;99.90;;;;;;5053954;28;20653;-50
2022/09/10 07:58:09;;;;;;;9.00;2.35;;;17.20;99.90;;;;;;5054075;28;20171;-52
2022/09/10 08:00:35;;;;;;;8.52;2.45;;;17.30;99.90;;;;;;5054217;28;20167;-51
2022/09/10 08:03:02;;;;;;;4.72;2.30;;;17.20;99.90;;;;;;5054089;28;20256;-52
2022/09/10 08:05:27;;;;;;;11.77;2.92;;;17.30;99.90;;;;;;5053742;28;20167;-50
2022/09/10 08:07:53;;;;;;;4.45;2.30;;;17.40;99.90;;;;;;5052528;28;20663;-52
2022/09/10 08:10:20;;;;;;;3.72;2.20;;;17.30;99.90;;;;;;5053729;28;20194;-50
2022/09/10 08:12:46;;;;;;;7.97;2.30;;;17.30;99.90;;;;;;5053499;28;20177;-50
2022/09/10 08:15:11;;;;;;;5.38;2.42;;;17.30;99.90;;;;;;5053611;28;20230;-50
2022/09/10 08:17:37;;;;;;;4.57;3.13;;;17.30;99.90;;;;;;5053627;28;20162;-49
2022/09/10 08:20:05;;;;;;;9.07;3.08;;;17.30;99.90;;;;;;5053929;28;20258;-51
2022/09/10 08:22:31;;;;;;;6.68;2.70;;;17.40;99.90;;;;;;5053742;28;20170;-50
2022/09/10 08:24:57;;;;;;;5.13;2.67;;;17.40;99.90;;;;;;5053421;28;20669;-50
2022/09/10 08:27:23;;;;;;;6.85;3.13;;;17.30;99.90;;;;;;5053691;28;20167;-50
2022/09/10 08:29:49;;;;;;;6.65;2.72;;;17.50;99.90;;;;;;5053315;28;20527;-51
2022/09/10 08:32:15;;;;;;;6.57;2.78;;;17.60;99.90;;;;;;5053543;28;20166;-50
2022/09/10 08:34:40;;;;;;;3.38;2.50;;;17.60;99.90;;;;;;5053199;28;20221;-50
2022/09/10 08:37:06;;;;;;;7.72;2.90;;;17.60;99.90;;;;;;5053558;28;20158;-51
2022/09/10 08:39:31;;;;;;;7.35;3.10;;;17.60;99.90;;;;;;5053357;28;20174;-50
2022/09/10 08:42:02;;;;;;;4.55;2.58;;;17.80;99.90;;;;;;5053076;28;20171;-50
2022/09/10 08:44:49;;;;;;;4.13;2.75;;;17.80;99.90;;;;;;5053324;28;20171;-51
2022/09/10 08:47:49;;;;;;;6.28;3.10;;;17.80;99.90;;;;;;5052125;28;20661;-50
2022/09/10 08:50:42;;;;;;;4.50;2.95;;;17.80;99.90;;;;;;5052953;28;20178;-51
2022/09/10 08:53:28;;;;;;;4.68;2.72;;;17.80;99.90;;;;;;5052761;28;20198;-50
2022/09/10 08:55:56;;;;;;;6.47;3.05;;;17.80;99.90;;;;;;5052900;28;20166;-50
2022/09/10 08:58:28;;;;;;;6.15;3.22;;;17.70;99.90;;;;;;5053022;28;20579;-50
2022/09/10 09:01:00;;;;;;;5.45;3.10;;;17.90;99.90;;;;;;5053000;28;20538;-50
2022/09/10 09:03:46;;;;;;;7.28;4.05;;;18.00;99.90;;;;;;5052574;28;20166;-50
2022/09/10 09:06:44;;;;;;;4.80;2.72;;;18.00;99.90;;;;;;5052764;28;20261;-50
2022/09/10 09:09:11;;;;;;;8.73;3.53;;;17.90;99.90;;;;;;5048534;28;20681;-51
2022/09/10 09:11:53;;;;;;;7.28;3.00;;;17.90;99.90;;;;;;5052622;28;20171;-50
2022/09/10 09:14:38;;;;;;;7.15;3.33;;;17.80;99.90;;;;;;5052486;28;20206;-51
2022/09/10 09:17:35;;;;;;;4.88;3.45;;;17.70;99.90;;;;;;5052735;28;20372;-50
2022/09/10 09:20:10;;;;;;;5.15;2.95;;;17.60;99.90;;;;;;5052665;28;20167;-51
2022/09/10 09:22:50;;;;;;;8.05;3.97;;;17.50;99.90;;;;;;5051507;28;20170;-50
2022/09/10 09:25:28;;;;;;;5.90;3.92;;;17.30;99.90;;;;;;5052565;28;20178;-50
2022/09/10 09:27:55;;;;;;;5.97;3.67;;;17.20;99.90;;;;;;5052133;28;20170;-50
2022/09/10 09:30:30;;;;;;;7.35;4.32;;;17.10;99.90;;;;;;5052479;28;20167;-50
2022/09/10 09:33:02;;;;;;;5.95;4.13;;;17.10;99.90;;;;;;5052351;28;20221;-50
2022/09/10 09:35:41;;;;;;;7.53;4.20;;;17.20;99.90;;;;;;5052175;28;20553;-50
2022/09/10 09:38:13;;;;;;;9.68;4.40;;;17.20;99.90;;;;;;5052250;28;20177;-49
2022/09/10 09:40:51;;;;;;;7.57;3.97;;;17.20;99.90;;;;;;5052303;28;20257;-50
2022/09/10 09:43:30;;;;;;;9.18;4.50;;;17.30;99.90;;;;;;5052005;28;20167;-49
2022/09/10 09:45:56;;;;;;;7.63;3.67;;;17.60;99.90;;;;;;5051977;28;20174;-50
2022/09/10 09:48:23;;;;;;;9.15;4.18;;;17.60;99.90;;;;;;5051926;28;20171;-50
2022/09/10 09:50:59;;;;;;;7.88;3.95;;;17.60;99.90;;;;;;5052217;28;20171;-50
2022/09/10 09:53:29;;;;;;;8.15;3.92;;;17.70;99.90;;;;;;5052023;28;20229;-50
2022/09/10 09:55:58;;;;;;;5.15;4.07;;;17.60;99.90;;;;;;5052186;28;20171;-50
2022/09/10 09:58:23;;;;;;;10.82;4.10;;;17.50;99.90;;;;;;5051708;28;20195;-51
2022/09/10 10:00:58;;;;;;;6.20;3.60;;;17.60;99.90;;;;;;5050592;28;20574;-50
2022/09/10 10:03:25;;;;;;;4.78;3.60;;;17.50;99.90;;;;;;5051732;28;20630;-50
2022/09/10 10:06:01;;;;;;;8.30;3.60;;;17.50;99.90;;;;;;5051723;28;20170;-52
2022/09/10 10:08:41;;;;;;;6.85;4.20;;;17.40;99.90;;;;;;5051732;28;20257;-51
2022/09/10 10:11:07;;;;;;;6.60;4.32;;;17.50;99.90;;;;;;5051630;28;20174;-50
2022/09/10 10:13:37;;;;;;;6.70;3.80;;;17.60;99.90;;;;;;5051981;28;20202;-51
2022/09/10 10:16:20;;;;;;;4.97;3.33;;;17.70;99.90;;;;;;5051908;28;20264;-50
2022/09/10 10:18:46;;;;;;;5.53;3.55;;;17.70;99.90;;;;;;5051903;28;20166;-50
2022/09/10 10:21:31;;;;;;;3.95;3.20;;;17.60;99.90;;;;;;5051680;28;20224;-50
2022/09/10 10:23:57;;;;;;;4.57;3.10;;;17.70;99.90;;;;;;5051454;28;20163;-50
2022/09/10 10:26:34;;;;;;;5.38;3.60;;;17.80;99.90;;;;;;5051512;28;20170;-50
2022/09/10 10:29:19;;;;;;;4.32;3.75;;;18.00;99.90;;;;;;5051752;28;20192;-50
2022/09/10 10:31:49;;;;;;;6.35;3.85;;;18.00;99.90;;;;;;5051470;28;20249;-51
2022/09/10 10:34:39;;;;;;;9.30;3.50;;;18.00;99.90;;;;;;5051366;28;20684;-51
2022/09/10 10:37:33;;;;;;;5.15;3.35;;;17.90;99.90;;;;;;5052013;28;20171;-50
2022/09/10 10:40:13;;;;;;;10.40;4.00;;;17.80;99.90;;;;;;5051323;28;20661;-50
2022/09/10 10:42:58;;;;;;;5.00;3.25;;;17.70;99.90;;;;;;5051430;28;20162;-50
2022/09/10 10:45:41;;;;;;;4.63;3.50;;;17.70;99.90;;;;;;5051277;28;20167;-50
2022/09/10 10:48:16;;;;;;;4.32;3.28;;;17.60;99.90;;;;;;5051338;28;20177;-50
2022/09/10 10:50:54;;;;;;;4.53;3.40;;;17.60;99.90;;;;;;5051327;28;20170;-50
2022/09/10 10:53:33;;;;;;;6.47;3.38;;;17.60;99.90;;;;;;5034705;28;20542;-51
2022/09/10 10:56:18;;;;;;;5.95;3.20;;;17.60;99.90;;;;;;5051135;28;20653;-50
2022/09/10 10:59:03;;;;;;;7.50;3.88;;;17.60;99.90;;;;;;5051267;28;20171;-51
2022/09/10 11:01:34;;;;;;;5.32;4.00;;;17.50;99.90;;;;;;5051187;28;20174;-50
2022/09/10 11:04:36;;;;;;;8.23;4.30;;;17.40;99.90;;;;;;5051159;28;20163;-50
2022/09/10 11:07:28;;;;;;;4.22;3.75;;;17.30;99.90;;;;;;5051537;28;20173;-51
2022/09/10 11:10:10;;;;;;;9.07;4.10;;;17.30;99.90;;;;;;5052630;28;20155;-50
2022/09/10 11:12:44;;;;;;;7.18;4.70;;;17.30;99.90;;;;;;5054724;28;20159;-49
2022/09/10 11:15:22;;;;;;;6.50;3.90;;;17.40;99.90;;;;;;5054037;28;20170;-50
2022/09/10 11:17:57;;;;;;;4.78;3.90;;;17.60;99.90;;;;;;5054745;28;20171;-48
2022/09/10 11:20:41;;;;;;;4.82;3.15;;;17.60;99.90;;;;;;5054432;28;20173;-50
2022/09/10 11:23:25;;;;;;;5.55;3.70;;;17.50;99.90;;;;;;5054382;28;20217;-50
2022/09/10 11:26:21;;;;;;;6.88;3.75;;;17.60;99.90;;;;;;5054874;28;20195;-50
2022/09/10 11:29:02;;;;;;;5.82;4.15;;;17.50;99.90;;;;;;5054421;28;20170;-51
2022/09/10 11:31:52;;;;;;;6.18;4.03;;;17.50;99.90;;;;;;5054741;28;20296;-51
2022/09/10 11:34:40;;;;;;;4.10;3.70;;;17.50;99.90;;;;;;5054379;28;20198;-50
2022/09/10 11:37:18;;;;;;;9.73;3.70;;;17.50;99.90;;;;;;5054970;28;20173;-50
2022/09/10 11:39:49;;;;;;;6.22;4.25;;;17.50;99.90;;;;;;5053568;28;20321;-47
2022/09/10 11:42:32;;;;;;;8.13;3.90;;;17.60;99.90;;;;;;5053977;28;20281;-48
2022/09/10 11:45:35;;;;;;;5.85;5.07;;;17.70;99.90;;;;;;5054084;28;20166;-47
2022/09/10 11:48:27;;;;;;;7.68;4.10;;;17.60;99.90;;;;;;5050332;28;20181;-47
2022/09/10 11:51:10;;;;;;;6.90;4.72;;;17.60;99.90;;;;;;5043700;28;20175;-47
2022/09/10 11:53:36;;;;;;;5.88;4.63;;;17.50;99.90;;;;;;5053249;28;20206;-47
2022/09/10 11:56:21;;;;;;;9.10;5.68;;;17.50;99.90;;;;;;5053932;28;20694;-47
2022/09/10 11:58:59;;;;;;;8.07;5.38;;;17.50;99.90;;;;;;5053698;28;20159;-47
2022/09/10 12:02:01;;;;;;;8.02;4.88;;;17.50;99.90;;;;;;5053674;28;20173;-48
2022/09/10 12:04:43;;;;;;;6.65;5.43;;;17.50;99.90;;;;;;5053624;28;20649;-47
2022/09/10 12:07:34;;;;;;;8.65;5.20;;;17.40;99.90;;;;;;5053143;28;20166;-50
2022/09/10 12:10:30;;;;;;;10.68;5.32;;;17.40;99.90;;;;;;5052757;28;20510;-51
2022/09/10 12:12:56;;;;;;;8.98;5.97;;;17.50;99.90;;;;;;5053668;28;20174;-50
2022/09/10 12:15:33;;;;;;;7.18;5.30;;;17.50;99.90;;;;;;5053500;28;20214;-51
2022/09/10 12:18:20;;;;;;;7.97;5.50;;;17.60;99.90;;;;;;5053601;28;20167;-51
2022/09/10 12:20:56;;;;;;;11.95;6.50;;;17.50;99.90;;;;;;5052757;28;20587;-50
2022/09/10 12:23:40;;;;;;;6.80;6.15;;;17.50;99.90;;;;;;5053446;28;20166;-50
2022/09/10 12:26:14;;;;;;;10.25;7.20;;;17.40;99.90;;;;;;5053488;28;20158;-50
2022/09/10 12:28:40;;;;;;;8.43;7.43;;;17.50;99.90;;;;;;5053334;28;20174;-50
2022/09/10 12:31:07;;;;;;;9.32;6.38;;;17.60;99.90;;;;;;5053245;28;20300;-51
2022/09/10 12:33:45;;;;;;;12.02;6.45;;;17.60;99.90;;;;;;5053557;28;20198;-50
2022/09/10 12:36:25;;;;;;;6.97;6.28;;;17.70;99.90;;;;;;5053342;28;20501;-50
2022/09/10 12:39:15;;;;;;;10.63;7.85;;;17.60;99.90;;;;;;5053051;28;20173;-50
2022/09/10 12:41:40;;;;;;;9.27;7.53;;;17.80;99.90;;;;;;5053110;28;20231;-50
2022/09/10 12:44:33;;;;;;;12.38;7.65;;;17.90;99.90;;;;;;5052735;28;20622;-50
2022/09/10 12:47:14;;;;;;;9.50;7.25;;;17.80;99.90;;;;;;5052906;28;20163;-50
2022/09/10 12:50:00;;;;;;;9.57;7.80;;;17.80;99.90;;;;;;5053043;28;20249;-50
2022/09/10 12:52:52;;;;;;;7.30;6.63;;;17.70;99.90;;;;;;5053044;28;20626;-50
2022/09/10 12:55:52;;;;;;;8.38;7.50;;;17.30;99.90;;;;;;5052910;28;20236;-50
2022/09/10 12:58:41;;;;;;;9.25;7.07;;;17.30;99.90;;;;;;5051766;28;20613;-51
2022/09/10 13:01:34;;;;;;;10.90;7.50;;;17.50;99.90;;;;;;5052609;28;20169;-50
2022/09/10 13:04:01;;;;;;;7.97;7.03;;;17.60;99.90;;;;;;5052767;28;20174;-50
2022/09/10 13:06:38;;;;;;;7.80;6.15;;;17.70;99.90;;;;;;5052599;28;20236;-50
2022/09/10 13:09:19;;;;;;;9.85;6.53;;;17.80;99.90;;;;;;5052973;28;20198;-50